Time;durP1;ratioP1;P1;durP2;ratioP2;P2;SDS_P1;SDS_P2;PMS_P1;PMS_P2;Temp;Humidity;BMP_temperature;BMP_pressure;BME280_temperature;BME280_humidity;BME280_pressure;Samples;Min_cycle;Max_cycle;Signal;HPM_P1;HPM_P2
2022/10/14 00:01:18;;;;;;;;;;;;;;;;;;5049011;28;4652;-63
2022/10/14 00:03:44;;;;;;;;;;;;;;;;;;5047800;28;5013;-63
2022/10/14 00:06:11;;;;;;;;;;;;;;;;;;5049569;28;2998;-63
2022/10/14 00:08:36;;;;;;;;;;;;;;;;;;5045500;28;4957;-62
2022/10/14 00:11:08;;;;;;;;;;;;;;;;;;5049809;28;4906;-61
2022/10/14 00:13:33;;;;;;;;;;;;;;;;;;5037591;28;5088;-63
2022/10/14 00:15:59;;;;;;;;;;;;;;;;;;5045576;28;4952;-63
2022/10/14 00:18:24;;;;;;;;;;;;;;;;;;5049565;28;5074;-61
2022/10/14 00:20:56;;;;;;;;;;;;;;;;;;5009036;28;1910;-60
2022/10/14 00:23:21;;;;;;;;;;;;;;;;;;5031814;28;5024;-61
2022/10/14 00:25:46;;;;;;;;;;;;;;;;;;5049041;28;5049;-62
2022/10/14 00:28:11;;;;;;;;;;;;;;;;;;5033556;28;5053;-62
2022/10/14 00:30:37;;;;;;;;;;;;;;;;;;5029567;28;4674;-61
2022/10/14 00:33:02;;;;;;;;;;;;;;;;;;5030067;28;1162;-61
2022/10/14 00:35:27;;;;;;;;;;;;;;;;;;5047452;28;5067;-61
2022/10/14 00:37:53;;;;;;;;;;;;;;;;;;5041158;28;5079;-60
2022/10/14 00:40:18;;;;;;;;;;;;;;;;;;5044496;28;5290;-61
2022/10/14 00:42:43;;;;;;;;;;;;;;;;;;5029014;28;5128;-60
2022/10/14 00:45:12;;;;;;;;;;;;;;;;;;5045472;28;3196;-61
2022/10/14 00:47:37;;;;;;;;;;;;;;;;;;5048282;28;4855;-62
2022/10/14 00:50:03;;;;;;;;;;;;;;;;;;5046221;28;5263;-62
2022/10/14 00:52:28;;;;;;;;;;;;;;;;;;5030049;28;5220;-61
2022/10/14 00:55:01;;;;;;;;;;;;;;;;;;5046308;28;5075;-62
2022/10/14 00:57:26;;;;;;;;;;;;;;;;;;5038819;28;5087;-61
2022/10/14 00:59:52;;;;;;;;;;;;;;;;;;5029557;28;2179;-60
2022/10/14 01:02:17;;;;;;;;;;;;;;;;;;5018953;28;5091;-64
2022/10/14 01:04:42;;;;;;;;;;;;;;;;;;5032912;28;5641;-61
2022/10/14 01:07:14;;;;;;;;;;;;;;;;;;5035626;28;5018;-62
2022/10/14 01:09:39;;;;;;;;;;;;;;;;;;5007258;28;5327;-61
2022/10/14 01:12:05;;;;;;;;;;;;;;;;;;5038943;28;2910;-61
2022/10/14 01:14:30;;;;;;;;;;;;;;;;;;5036127;28;5052;-61
2022/10/14 01:16:58;;;;;;;;;;;;;;;;;;5034893;28;4896;-61
2022/10/14 01:19:26;;;;;;;;;;;;;;;;;;5047054;28;4985;-62
2022/10/14 01:21:55;;;;;;;;;;;;;;;;;;5047248;28;5655;-60
2022/10/14 01:24:20;;;;;;;;;;;;;;;;;;5030465;28;4512;-60
2022/10/14 01:26:58;;;;;;;;;;;;;;;;;;5050429;28;4564;-62
2022/10/14 01:29:42;;;;;;;;;;;;;;;;;;5048631;28;4506;-62
2022/10/14 01:32:12;;;;;;;;;;;;;;;;;;5040555;28;4955;-62
2022/10/14 01:34:38;;;;;;;;;;;;;;;;;;5029898;28;5148;-61
2022/10/14 01:37:14;;;;;;;;;;;;;;;;;;5046876;28;4891;-62
2022/10/14 01:39:43;;;;;;;;;;;;;;;;;;5029667;28;5082;-62
2022/10/14 01:42:21;;;;;;;;;;;;;;;;;;5016507;28;2967;-63
2022/10/14 01:44:49;;;;;;;;;;;;;;;;;;5024304;28;6679;-62
2022/10/14 01:47:15;;;;;;;;;;;;;;;;;;5019496;28;4449;-61
2022/10/14 01:49:42;;;;;;;;;;;;;;;;;;5022533;28;4507;-62
2022/10/14 01:52:09;;;;;;;;;;;;;;;;;;5017116;28;5005;-62
2022/10/14 01:54:35;;;;;;;;;;;;;;;;;;5025218;28;5392;-62
2022/10/14 01:57:01;;;;;;;;;;;;;;;;;;5010414;28;1894;-62
2022/10/14 01:59:26;;;;;;;;;;;;;;;;;;5027297;28;4849;-62
2022/10/14 02:01:52;;;;;;;;;;;;;;;;;;5026669;28;5120;-61
2022/10/14 02:04:18;;;;;;;;;;;;;;;;;;5030529;28;5001;-61
2022/10/14 02:06:47;;;;;;;;;;;;;;;;;;5030494;28;5175;-61
2022/10/14 02:09:12;;;;;;;;;;;;;;;;;;5026705;28;2852;-63
2022/10/14 02:11:53;;;;;;;;;;;;;;;;;;5031485;28;4820;-62
2022/10/14 02:14:21;;;;;;;;;;;;;;;;;;5017939;28;4870;-62
2022/10/14 02:16:58;;;;;;;;;;;;;;;;;;5039994;28;5020;-61
2022/10/14 02:19:44;;;;;;;;;;;;;;;;;;5036086;28;4836;-62
2022/10/14 02:22:13;;;;;;;;;;;;;;;;;;5000176;28;5141;-62
2022/10/14 02:24:45;;;;;;;;;;;;;;;;;;5030315;28;5119;-62
2022/10/14 02:27:11;;;;;;;;;;;;;;;;;;5022682;28;4645;-61
2022/10/14 02:29:36;;;;;;;;;;;;;;;;;;5028592;28;5032;-61
2022/10/14 02:32:02;;;;;;;;;;;;;;;;;;5028813;28;4550;-62
2022/10/14 02:34:27;;;;;;;;;;;;;;;;;;5010596;28;5385;-62
2022/10/14 02:36:52;;;;;;;;;;;;;;;;;;5030736;28;5076;-61
2022/10/14 02:39:20;;;;;;;;;;;;;;;;;;5030655;28;5072;-62
2022/10/14 02:41:45;;;;;;;;;;;;;;;;;;5015910;28;2884;-61
2022/10/14 02:44:10;;;;;;;;;;;;;;;;;;4997818;28;4833;-61
2022/10/14 02:46:37;;;;;;;;;;;;;;;;;;5003233;28;4506;-62
2022/10/14 02:49:02;;;;;;;;;;;;;;;;;;5011876;28;4671;-61
2022/10/14 02:51:28;;;;;;;;;;;;;;;;;;5011022;28;5068;-62
2022/10/14 02:53:55;;;;;;;;;;;;;;;;;;5012386;28;978;-61
2022/10/14 02:56:20;;;;;;;;;;;;;;;;;;5009320;28;5078;-61
2022/10/14 02:58:45;;;;;;;;;;;;;;;;;;5010588;28;5012;-61
2022/10/14 03:01:10;;;;;;;;;;;;;;;;;;5011265;28;5170;-61
2022/10/14 03:03:36;;;;;;;;;;;;;;;;;;5002835;28;5183;-61
2022/10/14 03:06:01;;;;;;;;;;;;;;;;;;4998287;28;2703;-61
2022/10/14 03:08:26;;;;;;;;;;;;;;;;;;5009850;28;5009;-60
2022/10/14 03:10:51;;;;;;;;;;;;;;;;;;5009880;28;5055;-61
2022/10/14 03:13:17;;;;;;;;;;;;;;;;;;5004748;28;4920;-61
2022/10/14 03:15:42;;;;;;;;;;;;;;;;;;4997075;28;5510;-62
2022/10/14 03:18:07;;;;;;;;;;;;;;;;;;5011542;28;1045;-61
2022/10/14 03:20:32;;;;;;;;;;;;;;;;;;5022826;28;4844;-61
2022/10/14 03:22:58;;;;;;;;;;;;;;;;;;5009232;28;5310;-61
2022/10/14 03:25:23;;;;;;;;;;;;;;;;;;5009356;28;4656;-62
2022/10/14 03:27:48;;;;;;;;;;;;;;;;;;5025838;28;5077;-62
2022/10/14 03:30:14;;;;;;;;;;;;;;;;;;5011444;28;1163;-62
2022/10/14 03:32:39;;;;;;;;;;;;;;;;;;5010377;28;4859;-62
2022/10/14 03:35:04;;;;;;;;;;;;;;;;;;5010702;28;4813;-62
2022/10/14 03:37:30;;;;;;;;;;;;;;;;;;5009709;28;5044;-62
2022/10/14 03:39:55;;;;;;;;;;;;;;;;;;5008292;28;5114;-63
2022/10/14 03:42:20;;;;;;;;;;;;;;;;;;5029116;28;4970;-62
2022/10/14 03:44:45;;;;;;;;;;;;;;;;;;5034610;28;2906;-63
2022/10/14 03:47:11;;;;;;;;;;;;;;;;;;5018849;28;5139;-61
2022/10/14 03:49:36;;;;;;;;;;;;;;;;;;5064671;28;4460;-65
2022/10/14 03:52:01;;;;;;;;;;;;;;;;;;5048001;28;5159;-61
2022/10/14 03:54:26;;;;;;;;;;;;;;;;;;5043104;28;5168;-61
2022/10/14 03:56:52;;;;;;;;;;;;;;;;;;5032889;28;1177;-61
2022/10/14 03:59:17;;;;;;;;;;;;;;;;;;5047097;28;5691;-62
2022/10/14 04:01:42;;;;;;;;;;;;;;;;;;5047651;28;5084;-61
2022/10/14 04:04:07;;;;;;;;;;;;;;;;;;5037842;28;4882;-61
2022/10/14 04:06:33;;;;;;;;;;;;;;;;;;5048077;28;5050;-61
2022/10/14 04:08:58;;;;;;;;;;;;;;;;;;5049336;28;3197;-61
2022/10/14 04:11:23;;;;;;;;;;;;;;;;;;5048222;28;4948;-63
2022/10/14 04:13:48;;;;;;;;;;;;;;;;;;5022270;28;5246;-62
2022/10/14 04:16:14;;;;;;;;;;;;;;;;;;5041336;28;5054;-62
2022/10/14 04:18:39;;;;;;;;;;;;;;;;;;5047754;28;4991;-65
2022/10/14 04:21:05;;;;;;;;;;;;;;;;;;5057690;28;1992;-62
2022/10/14 04:23:30;;;;;;;;;;;;;;;;;;5051101;28;4989;-61
2022/10/14 04:25:56;;;;;;;;;;;;;;;;;;5066680;28;4817;-61
2022/10/14 04:28:21;;;;;;;;;;;;;;;;;;5034284;28;4786;-62
2022/10/14 04:30:46;;;;;;;;;;;;;;;;;;5048123;28;5079;-62
2022/10/14 04:33:11;;;;;;;;;;;;;;;;;;5048802;28;1983;-65
2022/10/14 04:35:37;;;;;;;;;;;;;;;;;;5036802;28;4867;-62
2022/10/14 04:38:02;;;;;;;;;;;;;;;;;;5031342;28;4840;-62
2022/10/14 04:40:27;;;;;;;;;;;;;;;;;;5030381;28;5210;-63
2022/10/14 04:42:56;;;;;;;;;;;;;;;;;;5046242;28;4871;-61
2022/10/14 04:45:21;;;;;;;;;;;;;;;;;;5010026;28;4929;-62
2022/10/14 04:47:46;;;;;;;;;;;;;;;;;;5056331;28;2767;-62
2022/10/14 04:50:12;;;;;;;;;;;;;;;;;;5042944;28;5068;-62
2022/10/14 04:52:37;;;;;;;;;;;;;;;;;;5036881;28;4591;-61
2022/10/14 04:55:02;;;;;;;;;;;;;;;;;;5042807;28;4713;-61
2022/10/14 04:57:28;;;;;;;;;;;;;;;;;;5024720;28;5520;-62
2022/10/14 04:59:53;;;;;;;;;;;;;;;;;;5034590;28;3226;-63
2022/10/14 05:02:24;;;;;;;;;;;;;;;;;;5039542;28;5066;-61
2022/10/14 05:04:49;;;;;;;;;;;;;;;;;;5045113;28;4909;-61
2022/10/14 05:07:15;;;;;;;;;;;;;;;;;;5048232;28;5071;-61
2022/10/14 05:09:47;;;;;;;;;;;;;;;;;;5044763;28;4908;-62
2022/10/14 05:12:13;;;;;;;;;;;;;;;;;;5040016;28;3273;-61
2022/10/14 05:14:38;;;;;;;;;;;;;;;;;;5033674;28;5031;-61
2022/10/14 05:17:04;;;;;;;;;;;;;;;;;;5020612;28;5172;-65
2022/10/14 05:19:29;;;;;;;;;;;;;;;;;;5040293;28;5038;-64
2022/10/14 05:21:54;;;;;;;;;;;;;;;;;;5037394;28;5252;-62
2022/10/14 05:24:19;;;;;;;;;;;;;;;;;;5043331;28;4887;-62
2022/10/14 05:26:45;;;;;;;;;;;;;;;;;;5047444;28;4684;-62
2022/10/14 05:29:11;;;;;;;;;;;;;;;;;;5047176;28;5033;-61
2022/10/14 05:31:36;;;;;;;;;;;;;;;;;;5023129;28;4512;-62
2022/10/14 05:34:02;;;;;;;;;;;;;;;;;;5029944;28;5047;-62
2022/10/14 05:36:27;;;;;;;;;;;;;;;;;;5047312;28;5108;-61
2022/10/14 05:38:55;;;;;;;;;;;;;;;;;;5048520;28;3018;-62
2022/10/14 05:41:20;;;;;;;;;;;;;;;;;;5043081;28;4896;-63
2022/10/14 05:43:45;;;;;;;;;;;;;;;;;;5050668;28;4828;-62
2022/10/14 05:46:10;;;;;;;;;;;;;;;;;;5056440;28;4983;-62
2022/10/14 05:48:36;;;;;;;;;;;;;;;;;;5043052;28;4478;-62
2022/10/14 05:51:02;;;;;;;;;;;;;;;;;;5035676;28;3162;-63
2022/10/14 05:53:27;;;;;;;;;;;;;;;;;;5023522;28;5085;-63
2022/10/14 05:55:59;;;;;;;;;;;;;;;;;;5041347;28;5065;-62
2022/10/14 05:58:24;;;;;;;;;;;;;;;;;;5044003;28;5006;-62
2022/10/14 06:00:49;;;;;;;;;;;;;;;;;;5036255;28;5101;-61
2022/10/14 06:03:15;;;;;;;;;;;;;;;;;;5043114;28;1757;-62
2022/10/14 06:05:40;;;;;;;;;;;;;;;;;;5037719;28;5065;-62
2022/10/14 06:08:05;;;;;;;;;;;;;;;;;;5032954;28;5453;-63
2022/10/14 06:10:30;;;;;;;;;;;;;;;;;;5038913;28;5150;-62
2022/10/14 06:12:56;;;;;;;;;;;;;;;;;;5039199;28;4983;-63
2022/10/14 06:15:21;;;;;;;;;;;;;;;;;;5027381;28;4915;-65
2022/10/14 06:17:46;;;;;;;;;;;;;;;;;;5028950;28;2996;-63
2022/10/14 06:20:11;;;;;;;;;;;;;;;;;;5037879;28;5082;-62
2022/10/14 06:22:37;;;;;;;;;;;;;;;;;;5029772;28;5143;-62
2022/10/14 06:25:02;;;;;;;;;;;;;;;;;;5013421;28;4644;-62
2022/10/14 06:27:27;;;;;;;;;;;;;;;;;;5035947;28;5097;-66
2022/10/14 06:29:53;;;;;;;;;;;;;;;;;;5020768;28;3240;-65
2022/10/14 06:32:18;;;;;;;;;;;;;;;;;;5037011;28;5005;-67
2022/10/14 06:34:43;;;;;;;;;;;;;;;;;;5029429;28;5087;-66
2022/10/14 06:37:08;;;;;;;;;;;;;;;;;;5047471;28;4998;-65
2022/10/14 06:39:34;;;;;;;;;;;;;;;;;;5045420;28;4979;-65
2022/10/14 06:41:59;;;;;;;;;;;;;;;;;;5038471;28;2970;-65
2022/10/14 06:44:24;;;;;;;;;;;;;;;;;;5014839;28;4509;-67
2022/10/14 06:46:49;;;;;;;;;;;;;;;;;;5033623;28;4981;-67
2022/10/14 06:49:15;;;;;;;;;;;;;;;;;;5029057;28;5244;-65
2022/10/14 06:51:40;;;;;;;;;;;;;;;;;;5034088;28;4656;-66
2022/10/14 06:54:06;;;;;;;;;;;;;;;;;;5034973;28;3350;-66
2022/10/14 06:56:33;;;;;;;;;;;;;;;;;;5049866;28;5129;-66
2022/10/14 06:58:58;;;;;;;;;;;;;;;;;;5036427;28;4985;-66
2022/10/14 07:01:23;;;;;;;;;;;;;;;;;;5038153;28;5089;-66
2022/10/14 07:03:49;;;;;;;;;;;;;;;;;;5045231;28;5090;-65
2022/10/14 07:06:14;;;;;;;;;;;;;;;;;;5039610;28;1436;-66
2022/10/14 07:08:39;;;;;;;;;;;;;;;;;;5041816;28;4804;-62
2022/10/14 07:11:04;;;;;;;;;;;;;;;;;;5037573;28;5101;-63
2022/10/14 07:13:30;;;;;;;;;;;;;;;;;;5041392;28;4915;-62
2022/10/14 07:15:55;;;;;;;;;;;;;;;;;;5031717;28;5145;-63
2022/10/14 07:18:20;;;;;;;;;;;;;;;;;;5030853;28;5076;-64
2022/10/14 07:20:46;;;;;;;;;;;;;;;;;;5041287;28;2239;-64
2022/10/14 07:23:11;;;;;;;;;;;;;;;;;;5044800;28;4498;-64
2022/10/14 07:25:36;;;;;;;;;;;;;;;;;;5040795;28;5161;-64
2022/10/14 07:28:02;;;;;;;;;;;;;;;;;;5029116;28;4692;-64
2022/10/14 07:30:27;;;;;;;;;;;;;;;;;;5043448;28;5083;-63
2022/10/14 07:32:52;;;;;;;;;;;;;;;;;;5040036;28;3191;-63
2022/10/14 07:35:18;;;;;;;;;;;;;;;;;;5034655;28;4646;-65
2022/10/14 07:37:43;;;;;;;;;;;;;;;;;;5030185;28;5485;-64
2022/10/14 07:40:09;;;;;;;;;;;;;;;;;;5047112;28;4967;-64
2022/10/14 07:42:34;;;;;;;;;;;;;;;;;;5038880;28;5139;-65
2022/10/14 07:44:59;;;;;;;;;;;;;;;;;;5043465;28;3214;-65
2022/10/14 07:47:24;;;;;;;;;;;;;;;;;;5033035;28;4942;-62
2022/10/14 07:49:50;;;;;;;;;;;;;;;;;;5029975;28;4412;-65
2022/10/14 07:52:18;;;;;;;;;;;;;;;;;;5036408;28;5083;-73
2022/10/14 07:54:43;;;;;;;;;;;;;;;;;;5031943;28;4521;-62
2022/10/14 07:57:08;;;;;;;;;;;;;;;;;;5050757;28;2417;-66
2022/10/14 07:59:34;;;;;;;;;;;;;;;;;;5048225;28;4885;-65
2022/10/14 08:01:59;;;;;;;;;;;;;;;;;;5045623;28;4641;-65
2022/10/14 08:04:24;;;;;;;;;;;;;;;;;;5047225;28;5049;-64
2022/10/14 08:06:50;;;;;;;;;;;;;;;;;;5034730;28;5138;-66
2022/10/14 08:09:15;;;;;;;;;;;;;;;;;;5042509;28;1591;-65
2022/10/14 08:11:40;;;;;;;;;;;;;;;;;;5038580;28;4541;-63
2022/10/14 08:14:06;;;;;;;;;;;;;;;;;;5026097;28;5014;-63
2022/10/14 08:16:32;;;;;;;;;;;;;;;;;;5039205;28;4819;-63
2022/10/14 08:18:58;;;;;;;;;;;;;;;;;;5042528;28;4651;-63
2022/10/14 08:21:23;;;;;;;;;;;;;;;;;;5023934;28;4879;-62
2022/10/14 08:23:48;;;;;;;;;;;;;;;;;;5040267;28;3063;-61
2022/10/14 08:26:16;;;;;;;;;;;;;;;;;;5049346;28;4418;-65
2022/10/14 08:28:41;;;;;;;;;;;;;;;;;;5031231;28;5258;-62
2022/10/14 08:31:06;;;;;;;;;;;;;;;;;;5039697;28;4498;-63
2022/10/14 08:33:32;;;;;;;;;;;;;;;;;;5041093;28;4692;-61
2022/10/14 08:35:57;;;;;;;;;;;;;;;;;;5042108;28;3038;-61
2022/10/14 08:38:24;;;;;;;;;;;;;;;;;;5045061;28;4828;-63
2022/10/14 08:40:58;;;;;;;;;;;;;;;;;;5031695;28;4505;-63
2022/10/14 08:43:27;;;;;;;;;;;;;;;;;;5009807;28;5125;-62
2022/10/14 08:45:54;;;;;;;;;;;;;;;;;;5025046;28;5098;-61
2022/10/14 08:48:20;;;;;;;;;;;;;;;;;;5015797;28;6121;-64
2022/10/14 08:50:50;;;;;;;;;;;;;;;;;;5026906;28;3103;-63
2022/10/14 08:53:16;;;;;;;;;;;;;;;;;;5026187;28;5052;-67
2022/10/14 08:55:45;;;;;;;;;;;;;;;;;;5024015;28;4676;-67
2022/10/14 08:58:30;;;;;;;;;;;;;;;;;;5018708;28;4867;-67
2022/10/14 09:00:56;;;;;;;;;;;;;;;;;;5027671;28;4526;-66
2022/10/14 09:03:22;;;;;;;;;;;;;;;;;;5001368;28;4674;-64
2022/10/14 09:05:57;;;;;;;;;;;;;;;;;;5022744;28;2911;-66
2022/10/14 09:08:27;;;;;;;;;;;;;;;;;;5028672;28;5002;-66
2022/10/14 09:10:52;;;;;;;;;;;;;;;;;;5027014;28;4442;-66
2022/10/14 09:13:26;;;;;;;;;;;;;;;;;;5025386;28;5124;-66
2022/10/14 09:15:54;;;;;;;;;;;;;;;;;;5027012;28;5074;-66
2022/10/14 09:18:23;;;;;;;;;;;;;;;;;;5026176;28;5018;-65
2022/10/14 09:20:48;;;;;;;;;;;;;;;;;;5025842;28;2483;-65
2022/10/14 09:23:18;;;;;;;;;;;;;;;;;;5023804;28;4655;-65
2022/10/14 09:25:52;;;;;;;;;;;;;;;;;;5027002;28;4822;-64
2022/10/14 09:28:18;;;;;;;;;;;;;;;;;;5011420;28;5051;-65
2022/10/14 09:30:43;;;;;;;;;;;;;;;;;;5013722;28;5043;-66
2022/10/14 09:33:10;;;;;;;;;;;;;;;;;;5032545;28;1507;-65
2022/10/14 09:35:36;;;;;;;;;;;;;;;;;;5021347;28;4393;-66
2022/10/14 09:38:01;;;;;;;;;;;;;;;;;;5024205;28;4816;-66
2022/10/14 09:40:33;;;;;;;;;;;;;;;;;;5021583;28;4879;-63
2022/10/14 09:43:08;;;;;;;;;;;;;;;;;;5038130;28;5015;-65
2022/10/14 09:45:45;;;;;;;;;;;;;;;;;;5028402;28;4994;-69
2022/10/14 09:48:11;;;;;;;;;;;;;;;;;;5048326;28;3086;-64
2022/10/14 09:50:38;;;;;;;;;;;;;;;;;;5029716;28;4792;-67
2022/10/14 09:53:04;;;;;;;;;;;;;;;;;;5040249;28;5060;-64
2022/10/14 09:55:29;;;;;;;;;;;;;;;;;;5048137;28;4645;-64
2022/10/14 09:58:05;;;;;;;;;;;;;;;;;;5047431;28;4974;-64
2022/10/14 10:00:31;;;;;;;;;;;;;;;;;;5029681;28;4939;-64
2022/10/14 10:02:56;;;;;;;;;;;;;;;;;;5018788;28;1121;-66
2022/10/14 10:05:27;;;;;;;;;;;;;;;;;;5034614;28;4819;-66
2022/10/14 10:08:04;;;;;;;;;;;;;;;;;;5047443;28;4895;-66
2022/10/14 10:10:30;;;;;;;;;;;;;;;;;;5039963;28;5010;-64
2022/10/14 10:12:58;;;;;;;;;;;;;;;;;;5028660;28;4946;-64
2022/10/14 10:15:23;;;;;;;;;;;;;;;;;;5029816;28;5005;-66
2022/10/14 10:17:48;;;;;;;;;;;;;;;;;;5035920;28;2802;-66
2022/10/14 10:20:15;;;;;;;;;;;;;;;;;;5025323;28;5100;-66
2022/10/14 10:22:41;;;;;;;;;;;;;;;;;;5039805;28;4855;-66
2022/10/14 10:25:07;;;;;;;;;;;;;;;;;;5031823;28;5045;-64
2022/10/14 10:27:39;;;;;;;;;;;;;;;;;;5048173;28;5031;-66
2022/10/14 10:30:28;;;;;;;;;;;;;;;;;;5034794;28;1378;-65
2022/10/14 10:33:22;;;;;;;;;;;;;;;;;;5023960;28;4615;-66
2022/10/14 10:35:57;;;;;;;;;;;;;;;;;;4953626;28;5620;-65
2022/10/14 10:38:22;;;;;;;;;;;;;;;;;;5042767;28;5000;-66
2022/10/14 10:40:50;;;;;;;;;;;;;;;;;;5048457;28;4508;-66
2022/10/14 10:43:35;;;;;;;;;;;;;;;;;;5031479;28;5329;-63
2022/10/14 10:46:19;;;;;;;;;;;;;;;;;;5045560;28;5039;-63
2022/10/14 10:48:46;;;;;;;;;;;;;;;;;;5030789;28;4931;-64
2022/10/14 10:51:12;;;;;;;;;;;;;;;;;;5047878;28;2919;-65
2022/10/14 10:53:48;;;;;;;;;;;;;;;;;;5013394;28;5128;-64
2022/10/14 10:56:32;;;;;;;;;;;;;;;;;;5008788;28;5069;-64
2022/10/14 10:59:05;;;;;;;;;;;;;;;;;;5031598;28;4717;-63
2022/10/14 11:01:39;;;;;;;;;;;;;;;;;;5049845;28;4912;-65
2022/10/14 11:04:04;;;;;;;;;;;;;;;;;;5049476;28;5028;-66
2022/10/14 11:12:22;;;;;;;;;;;;;;;;;;5035309;28;4600;-66
2022/10/14 11:14:57;;;;;;;;;;;;;;;;;;5040600;28;5092;-66
2022/10/14 11:17:38;;;;;;;;;;;;;;;;;;5032681;28;4776;-64
2022/10/14 11:20:06;;;;;;;;;;;;;;;;;;5031211;28;4941;-64
2022/10/14 11:22:51;;;;;;;;;;;;;;;;;;5046220;28;4911;-63
2022/10/14 11:25:29;;;;;;;;;;;;;;;;;;5047110;28;5052;-64
2022/10/14 11:28:04;;;;;;;;;;;;;;;;;;5033423;28;4792;-70
2022/10/14 11:30:37;;;;;;;;;;;;;;;;;;5029733;28;5010;-74
2022/10/14 11:33:02;;;;;;;;;;;;;;;;;;5042439;28;3178;-65
2022/10/14 11:35:46;;;;;;;;;;;;;;;;;;5049358;28;5821;-70
2022/10/14 11:38:11;;;;;;;;;;;;;;;;;;5032430;28;4489;-72
2022/10/14 11:41:00;;;;;;;;;;;;;;;;;;5050249;28;4594;-65
2022/10/14 11:43:37;;;;;;;;;;;;;;;;;;5006988;28;5136;-66
2022/10/14 11:46:06;;;;;;;;;;;;;;;;;;5021730;28;4913;-67
2022/10/14 11:48:36;;;;;;;;;;;;;;;;;;5032458;28;4675;-66
2022/10/14 11:51:15;;;;;;;;;;;;;;;;;;5007970;28;3196;-66
2022/10/14 11:53:53;;;;;;;;;;;;;;;;;;5022944;28;4988;-72
2022/10/14 11:56:21;;;;;;;;;;;;;;;;;;5028456;28;4680;-67
2022/10/14 11:58:46;;;;;;;;;;;;;;;;;;5026040;28;5038;-65
2022/10/14 12:01:17;;;;;;;;;;;;;;;;;;5022631;28;5106;-65
2022/10/14 12:03:43;;;;;;;;;;;;;;;;;;5019135;28;4587;-66
2022/10/14 12:06:11;;;;;;;;;;;;;;;;;;5027230;28;1675;-67
2022/10/14 12:08:44;;;;;;;;;;;;;;;;;;5016325;28;4445;-66
2022/10/14 12:11:21;;;;;;;;;;;;;;;;;;5021407;28;5070;-68
2022/10/14 12:13:47;;;;;;;;;;;;;;;;;;5021867;28;4555;-66
2022/10/14 12:16:14;;;;;;;;;;;;;;;;;;5015853;28;4628;-63
2022/10/14 12:18:40;;;;;;;;;;;;;;;;;;5009527;28;4942;-63
2022/10/14 12:21:12;;;;;;;;;;;;;;;;;;5018427;28;3276;-69
2022/10/14 12:23:58;;;;;;;;;;;;;;;;;;5008052;28;4520;-69
2022/10/14 12:26:23;;;;;;;;;;;;;;;;;;5011975;28;4625;-69
2022/10/14 12:28:51;;;;;;;;;;;;;;;;;;5026510;28;4966;-67
2022/10/14 12:31:27;;;;;;;;;;;;;;;;;;5015628;28;4548;-66
2022/10/14 12:34:12;;;;;;;;;;;;;;;;;;5024681;28;5234;-68
2022/10/14 12:36:37;;;;;;;;;;;;;;;;;;5015147;28;5003;-67
2022/10/14 12:39:15;;;;;;;;;;;;;;;;;;5028989;28;1129;-67
2022/10/14 12:41:42;;;;;;;;;;;;;;;;;;5012604;28;5329;-67
2022/10/14 12:44:13;;;;;;;;;;;;;;;;;;5041105;28;5401;-68
2022/10/14 12:46:45;;;;;;;;;;;;;;;;;;5010497;28;4587;-70
2022/10/14 12:49:25;;;;;;;;;;;;;;;;;;5049493;28;5220;-68
2022/10/14 12:51:54;;;;;;;;;;;;;;;;;;5031024;28;4503;-69
2022/10/14 12:54:19;;;;;;;;;;;;;;;;;;5029888;28;5065;-70
2022/10/14 12:56:55;;;;;;;;;;;;;;;;;;5028950;28;3166;-70
2022/10/14 12:59:22;;;;;;;;;;;;;;;;;;5036057;28;4956;-68
2022/10/14 13:01:52;;;;;;;;;;;;;;;;;;5026035;28;5075;-68
2022/10/14 13:04:24;;;;;;;;;;;;;;;;;;5031001;28;5089;-68
2022/10/14 13:07:08;;;;;;;;;;;;;;;;;;5014930;28;5032;-68
2022/10/14 13:09:40;;;;;;;;;;;;;;;;;;5036790;28;5124;-70
2022/10/14 13:12:07;;;;;;;;;;;;;;;;;;5025019;28;3007;-71
2022/10/14 13:14:34;;;;;;;;;;;;;;;;;;5027189;28;5088;-71
2022/10/14 13:17:02;;;;;;;;;;;;;;;;;;5028195;28;5114;-73
2022/10/14 13:19:34;;;;;;;;;;;;;;;;;;5046223;28;5036;-74
2022/10/14 13:22:00;;;;;;;;;;;;;;;;;;5047928;28;4493;-70
2022/10/14 13:24:28;;;;;;;;;;;;;;;;;;5054333;28;4990;-69
2022/10/14 13:26:53;;;;;;;;;;;;;;;;;;5048763;28;4846;-73
2022/10/14 13:29:18;;;;;;;;;;;;;;;;;;5039293;28;5064;-68
2022/10/14 13:32:02;;;;;;;;;;;;;;;;;;5032398;28;5860;-68
2022/10/14 13:34:27;;;;;;;;;;;;;;;;;;5044336;28;5133;-71
2022/10/14 13:36:56;;;;;;;;;;;;;;;;;;5043168;28;4631;-71
2022/10/14 13:39:21;;;;;;;;;;;;;;;;;;5045848;28;4619;-73
2022/10/14 13:41:46;;;;;;;;;;;;;;;;;;5048365;28;3503;-72
2022/10/14 13:44:11;;;;;;;;;;;;;;;;;;5015380;28;5201;-66
2022/10/14 13:46:41;;;;;;;;;;;;;;;;;;5019070;28;4762;-67
2022/10/14 13:49:07;;;;;;;;;;;;;;;;;;5009385;28;4922;-69
2022/10/14 13:51:32;;;;;;;;;;;;;;;;;;5026925;28;4975;-71
2022/10/14 13:53:58;;;;;;;;;;;;;;;;;;5020574;28;3185;-68
2022/10/14 13:56:30;;;;;;;;;;;;;;;;;;5026234;28;4578;-67
2022/10/14 13:58:55;;;;;;;;;;;;;;;;;;5023312;28;5538;-66
2022/10/14 14:01:22;;;;;;;;;;;;;;;;;;5028172;28;5274;-67
2022/10/14 14:03:51;;;;;;;;;;;;;;;;;;5030468;28;5051;-64
2022/10/14 14:06:17;;;;;;;;;;;;;;;;;;5022267;28;4572;-65
2022/10/14 14:08:58;;;;;;;;;;;;;;;;;;5023470;28;3121;-67
2022/10/14 14:11:26;;;;;;;;;;;;;;;;;;5030620;28;4429;-65
2022/10/14 14:13:55;;;;;;;;;;;;;;;;;;5028907;28;5027;-66
2022/10/14 14:16:21;;;;;;;;;;;;;;;;;;5020906;28;5294;-65
2022/10/14 14:18:47;;;;;;;;;;;;;;;;;;5034668;28;5249;-66
2022/10/14 14:21:12;;;;;;;;;;;;;;;;;;5034773;28;1965;-64
2022/10/14 14:23:51;;;;;;;;;;;;;;;;;;5031439;28;4498;-65
2022/10/14 14:26:16;;;;;;;;;;;;;;;;;;5020083;28;5327;-64
2022/10/14 14:28:43;;;;;;;;;;;;;;;;;;5029902;28;5458;-66
2022/10/14 14:31:13;;;;;;;;;;;;;;;;;;5029681;28;5103;-66
2022/10/14 14:33:38;;;;;;;;;;;;;;;;;;5026783;28;4502;-67
2022/10/14 14:36:08;;;;;;;;;;;;;;;;;;5029546;28;2741;-64
2022/10/14 14:38:34;;;;;;;;;;;;;;;;;;5021564;28;4944;-65
2022/10/14 14:41:11;;;;;;;;;;;;;;;;;;5016707;28;5059;-65
2022/10/14 14:43:36;;;;;;;;;;;;;;;;;;5023162;28;5120;-65
2022/10/14 14:46:01;;;;;;;;;;;;;;;;;;5011977;28;5036;-65
2022/10/14 14:48:27;;;;;;;;;;;;;;;;;;5014674;28;5364;-66
2022/10/14 14:50:52;;;;;;;;;;;;;;;;;;5020731;28;3143;-65
2022/10/14 14:53:21;;;;;;;;;;;;;;;;;;5023029;28;5522;-66
2022/10/14 14:56:00;;;;;;;;;;;;;;;;;;5027302;28;5039;-63
2022/10/14 14:58:56;;;;;;;;;;;;;;;;;;5023331;28;5202;-64
2022/10/14 15:01:23;;;;;;;;;;;;;;;;;;5019680;28;5136;-62
2022/10/14 15:03:57;;;;;;;;;;;;;;;;;;5027374;28;5006;-62
2022/10/14 15:06:23;;;;;;;;;;;;;;;;;;5023951;28;4511;-62
2022/10/14 15:08:52;;;;;;;;;;;;;;;;;;5023841;28;2884;-62
2022/10/14 15:11:17;;;;;;;;;;;;;;;;;;5025254;28;4983;-63
2022/10/14 15:13:44;;;;;;;;;;;;;;;;;;5030062;28;4894;-62
2022/10/14 15:16:09;;;;;;;;;;;;;;;;;;5025589;28;4928;-63
2022/10/14 15:18:36;;;;;;;;;;;;;;;;;;5022880;28;4974;-62
2022/10/14 15:21:23;;;;;;;;;;;;;;;;;;5019949;28;3168;-63
2022/10/14 15:23:48;;;;;;;;;;;;;;;;;;5028917;28;5282;-63
2022/10/14 15:26:20;;;;;;;;;;;;;;;;;;5030860;28;4810;-63
2022/10/14 15:28:45;;;;;;;;;;;;;;;;;;5017707;28;5070;-62
2022/10/14 15:31:13;;;;;;;;;;;;;;;;;;5012510;28;5094;-63
2022/10/14 15:33:38;;;;;;;;;;;;;;;;;;5008566;28;4915;-63
2022/10/14 15:36:04;;;;;;;;;;;;;;;;;;5024374;28;3021;-62
2022/10/14 15:38:29;;;;;;;;;;;;;;;;;;5018901;28;5041;-62
2022/10/14 15:40:54;;;;;;;;;;;;;;;;;;5022564;28;5519;-62
2022/10/14 15:43:24;;;;;;;;;;;;;;;;;;5037318;28;4973;-62
2022/10/14 15:48:33;;;;;;;;;;;;;;;;;;5041177;28;4510;-62
2022/10/14 15:50:59;;;;;;;;;;;;;;;;;;5037547;28;3065;-63
2022/10/14 15:53:24;;;;;;;;;;;;;;;;;;5045624;28;4990;-66
2022/10/14 15:55:51;;;;;;;;;;;;;;;;;;5048917;28;4645;-65
2022/10/14 15:58:16;;;;;;;;;;;;;;;;;;5050288;28;5126;-65
2022/10/14 16:00:44;;;;;;;;;;;;;;;;;;5045482;28;5165;-65
2022/10/14 16:03:10;;;;;;;;;;;;;;;;;;5049335;28;3060;-65
2022/10/14 16:05:37;;;;;;;;;;;;;;;;;;5044782;28;4930;-65
2022/10/14 16:08:04;;;;;;;;;;;;;;;;;;5043590;28;4677;-64
2022/10/14 16:10:29;;;;;;;;;;;;;;;;;;5026302;28;5156;-65
2022/10/14 16:12:55;;;;;;;;;;;;;;;;;;5034075;28;5009;-67
2022/10/14 16:15:38;;;;;;;;;;;;;;;;;;5022706;28;4493;-66
2022/10/14 16:18:04;;;;;;;;;;;;;;;;;;5041388;28;3217;-66
2022/10/14 16:20:29;;;;;;;;;;;;;;;;;;5036773;28;4768;-66
2022/10/14 16:22:55;;;;;;;;;;;;;;;;;;5042944;28;5251;-67
2022/10/14 16:25:28;;;;;;;;;;;;;;;;;;5027255;28;4943;-66
2022/10/14 16:27:54;;;;;;;;;;;;;;;;;;5042817;28;5391;-66
2022/10/14 16:30:19;;;;;;;;;;;;;;;;;;5048679;28;4863;-66
2022/10/14 16:32:45;;;;;;;;;;;;;;;;;;5039637;28;2905;-67
2022/10/14 16:35:10;;;;;;;;;;;;;;;;;;5039298;28;5046;-67
2022/10/14 16:37:37;;;;;;;;;;;;;;;;;;5038011;28;5077;-66
2022/10/14 16:40:02;;;;;;;;;;;;;;;;;;5040438;28;5180;-63
2022/10/14 16:42:27;;;;;;;;;;;;;;;;;;5038909;28;4819;-63
2022/10/14 16:44:52;;;;;;;;;;;;;;;;;;5037549;28;1674;-63
2022/10/14 16:47:18;;;;;;;;;;;;;;;;;;5048309;28;5150;-63
2022/10/14 16:49:48;;;;;;;;;;;;;;;;;;5027743;28;5164;-62
2022/10/14 16:52:13;;;;;;;;;;;;;;;;;;5043456;28;5269;-63
2022/10/14 16:54:38;;;;;;;;;;;;;;;;;;5047374;28;5123;-63
2022/10/14 16:57:04;;;;;;;;;;;;;;;;;;5038596;28;3160;-64
2022/10/14 16:59:30;;;;;;;;;;;;;;;;;;5033342;28;4972;-65
2022/10/14 17:01:55;;;;;;;;;;;;;;;;;;5039746;28;4660;-64
2022/10/14 17:04:21;;;;;;;;;;;;;;;;;;5035764;28;4918;-64
2022/10/14 17:06:46;;;;;;;;;;;;;;;;;;5043434;28;5013;-61
2022/10/14 17:09:11;;;;;;;;;;;;;;;;;;5035675;28;3056;-64
2022/10/14 17:11:37;;;;;;;;;;;;;;;;;;5030801;28;5125;-65
2022/10/14 17:14:03;;;;;;;;;;;;;;;;;;5040972;28;5388;-65
2022/10/14 17:16:28;;;;;;;;;;;;;;;;;;5038154;28;5018;-62